createdAt,value
2023-03-30T00:02:25.160Z,4.70
2023-03-30T00:05:13.815Z,5.63
2023-03-30T00:08:01.224Z,4.43
2023-03-30T00:10:49.265Z,4.93
2023-03-30T00:13:38.403Z,5.17
2023-03-30T00:16:27.619Z,5.50
2023-03-30T00:19:16.895Z,5.87
2023-03-30T00:22:04.769Z,6.30
2023-03-30T00:24:52.230Z,5.10
2023-03-30T00:27:40.548Z,5.27
2023-03-30T00:30:27.933Z,5.17
2023-03-30T00:33:17.045Z,5.20
2023-03-30T00:36:04.320Z,5.07
2023-03-30T00:38:51.632Z,4.87
2023-03-30T00:41:39.193Z,5.77
2023-03-30T00:45:08.762Z,5.20
2023-03-30T00:48:01.233Z,5.47
2023-03-30T00:50:53.561Z,5.47
2023-03-30T00:53:44.153Z,5.60
2023-03-30T00:56:32.263Z,5.10
2023-03-30T00:59:19.682Z,4.80
2023-03-30T01:02:07.288Z,5.70
2023-03-30T01:09:48.079Z,4.83
2023-03-30T01:12:36.341Z,5.63
2023-03-30T01:15:25.342Z,5.80
2023-03-30T01:18:25.062Z,5.13
2023-03-30T01:22:00.228Z,5.27
2023-03-30T01:25:21.951Z,5.00
2023-03-30T01:28:21.212Z,5.27
2023-03-30T01:31:32.720Z,5.43
2023-03-30T01:34:57.794Z,5.70
2023-03-30T01:38:25.179Z,5.37
2023-03-30T01:41:20.012Z,5.57
2023-03-30T01:44:14.670Z,5.40
2023-03-30T01:47:10.683Z,5.33
2023-03-30T01:50:04.138Z,5.33
2023-03-30T01:52:56.212Z,6.00
2023-03-30T01:55:47.732Z,5.17
2023-03-30T01:58:40.809Z,5.23
2023-03-30T02:01:33.145Z,5.43
2023-03-30T02:04:24.505Z,5.00
2023-03-30T02:07:15.849Z,5.23
2023-03-30T02:10:07.313Z,4.53
2023-03-30T02:12:57.981Z,5.13
2023-03-30T02:15:49.335Z,5.40
2023-03-30T02:18:38.192Z,5.27
2023-03-30T02:21:26.187Z,4.83
2023-03-30T02:24:19.194Z,4.80
2023-03-30T02:27:08.159Z,5.07
2023-03-30T02:29:56.494Z,4.83
2023-03-30T02:32:48.426Z,4.90
2023-03-30T02:35:52.357Z,5.37
2023-03-30T02:39:04.162Z,4.90
2023-03-30T02:42:19.028Z,4.90
2023-03-30T02:45:28.600Z,4.60
2023-03-30T02:48:30.117Z,4.70
2023-03-30T02:51:33.569Z,5.83
2023-03-30T02:54:50.274Z,5.00
2023-03-30T02:57:47.918Z,5.00
2023-03-30T03:01:02.293Z,5.77
2023-03-30T03:04:03.295Z,5.07
2023-03-30T03:06:57.641Z,5.67
2023-03-30T03:09:45.018Z,5.33
2023-03-30T03:12:34.403Z,5.13
2023-03-30T03:15:22.337Z,5.77
2023-03-30T03:18:24.390Z,5.47
2023-03-30T03:21:14.757Z,6.03
2023-03-30T03:24:02.421Z,5.47
2023-03-30T03:27:09.814Z,5.67
2023-03-30T03:30:35.195Z,5.53
2023-03-30T03:33:31.832Z,5.80
2023-03-30T03:36:40.548Z,5.87
2023-03-30T03:39:28.318Z,5.40
2023-03-30T03:42:24.067Z,5.30
2023-03-30T03:45:31.965Z,5.60
2023-03-30T03:48:23.191Z,5.73
2023-03-30T03:51:11.148Z,6.10
2023-03-30T03:54:00.248Z,5.30
2023-03-30T03:56:47.914Z,5.43
2023-03-30T03:59:35.768Z,5.00
2023-03-30T04:02:24.197Z,5.50
2023-03-30T04:05:13.915Z,5.47
2023-03-30T04:08:01.261Z,5.50
2023-03-30T04:10:49.834Z,4.87
2023-03-30T04:14:00.308Z,5.60
2023-03-30T04:17:26.087Z,5.73
2023-03-30T04:20:39.516Z,5.50
2023-03-30T04:23:36.514Z,5.87
2023-03-30T04:26:41.507Z,5.47
2023-03-30T04:29:49.053Z,5.30
2023-03-30T04:32:41.244Z,5.03
2023-03-30T04:35:30.177Z,5.97
2023-03-30T04:38:36.387Z,5.23
2023-03-30T04:41:52.201Z,5.20
2023-03-30T04:44:58.924Z,5.50
2023-03-30T04:48:05.467Z,5.67
2023-03-30T04:51:24.739Z,5.60
2023-03-30T04:54:32.721Z,5.20
2023-03-30T04:57:22.033Z,6.10
2023-03-30T05:00:24.106Z,5.83
2023-03-30T05:03:12.223Z,5.67
2023-03-30T05:06:12.958Z,5.20
2023-03-30T05:09:11.599Z,5.77
2023-03-30T05:12:07.507Z,5.13
2023-03-30T05:15:05.377Z,5.07
2023-03-30T05:18:18.940Z,5.30
2023-03-30T05:21:12.168Z,5.10
2023-03-30T05:24:30.971Z,4.87
2023-03-30T05:27:31.185Z,5.63
2023-03-30T05:30:27.640Z,5.20
2023-03-30T05:33:35.109Z,4.80
2023-03-30T05:36:42.815Z,4.80
2023-03-30T05:39:49.132Z,4.97
2023-03-30T05:42:42.505Z,4.87
2023-03-30T05:45:57.491Z,4.50
2023-03-30T05:49:16.874Z,4.77
2023-03-30T05:52:23.811Z,5.27
2023-03-30T05:55:17.464Z,4.80
2023-03-30T05:58:16.423Z,4.80
2023-03-30T06:01:21.884Z,4.57
2023-03-30T06:04:10.144Z,5.07
2023-03-30T06:06:58.156Z,5.30
2023-03-30T06:09:47.183Z,5.17
2023-03-30T06:12:44.985Z,4.33
2023-03-30T06:15:46.605Z,4.17
2023-03-30T06:18:40.669Z,4.33
2023-03-30T06:21:32.534Z,4.50
2023-03-30T06:24:37.303Z,4.30
2023-03-30T06:27:24.494Z,4.67
2023-03-30T06:30:12.990Z,4.40
2023-03-30T06:33:02.993Z,5.00
2023-03-30T06:36:03.515Z,4.87
2023-03-30T06:38:50.400Z,4.40
2023-03-30T06:41:38.271Z,3.87
2023-03-30T06:44:25.735Z,4.03
2023-03-30T06:47:13.026Z,4.57
2023-03-30T06:50:00.587Z,4.13
2023-03-30T06:53:12.554Z,4.53
2023-03-30T06:56:04.426Z,4.50
2023-03-30T06:58:57.118Z,4.20
2023-03-30T07:01:44.593Z,4.30
2023-03-30T07:05:04.085Z,4.20
2023-03-30T07:08:28.363Z,4.30
2023-03-30T07:11:16.038Z,3.80
2023-03-30T07:14:05.479Z,4.17
2023-03-30T07:16:54.110Z,4.43
2023-03-30T07:19:41.425Z,4.00
2023-03-30T07:22:28.860Z,3.77
2023-03-30T07:25:18.357Z,3.30
2023-03-30T07:28:06.365Z,4.00
2023-03-30T07:30:54.334Z,4.30
2023-03-30T07:33:43.079Z,3.63
2023-03-30T07:36:34.065Z,3.80
2023-03-30T07:39:21.634Z,3.40
2023-03-30T07:42:12.113Z,3.33
2023-03-30T07:44:59.763Z,3.72
2023-03-30T07:47:48.336Z,3.38
2023-03-30T07:50:36.213Z,3.67
2023-03-30T07:53:23.974Z,3.40
2023-03-30T07:56:12.101Z,3.67
2023-03-30T07:59:09.887Z,3.10
2023-03-30T08:01:58.382Z,2.80
2023-03-30T08:05:19.829Z,3.42
2023-03-30T08:08:17.671Z,3.13
2023-03-30T08:11:05.560Z,2.65
2023-03-30T08:13:53.037Z,3.03
2023-03-30T08:16:41.979Z,2.80
2023-03-30T08:19:29.410Z,2.53
2023-03-30T08:22:16.711Z,2.53
2023-03-30T08:25:03.964Z,2.28
2023-03-30T08:27:51.263Z,2.40
2023-03-30T08:30:38.863Z,2.28
2023-03-30T08:33:28.052Z,2.38
2023-03-30T08:36:16.231Z,2.35
2023-03-30T08:39:04.717Z,2.50
2023-03-30T08:42:06.135Z,2.25
2023-03-30T08:44:56.556Z,2.20
2023-03-30T08:47:48.858Z,2.05
2023-03-30T08:50:38.219Z,2.17
2023-03-30T08:53:26.375Z,2.38
2023-03-30T08:56:19.801Z,2.10
2023-03-30T08:59:19.852Z,2.05
2023-03-30T09:02:15.513Z,2.08
2023-03-30T09:05:09.467Z,2.17
2023-03-30T09:08:04.270Z,2.33
2023-03-30T09:10:57.816Z,2.40
2023-03-30T09:13:46.458Z,3.03
2023-03-30T09:16:39.794Z,2.08
2023-03-30T09:19:34.912Z,2.40
2023-03-30T09:22:26.208Z,2.40
2023-03-30T09:25:18.504Z,2.53
2023-03-30T09:28:13.463Z,2.10
2023-03-30T09:31:04.429Z,2.25
2023-03-30T09:33:59.196Z,1.88
2023-03-30T09:36:53.503Z,2.80
2023-03-30T09:39:42.226Z,2.35
2023-03-30T09:42:37.054Z,2.67
2023-03-30T09:45:29.015Z,1.83
2023-03-30T09:48:17.849Z,2.50
2023-03-30T09:51:15.591Z,2.20
2023-03-30T09:54:06.113Z,2.20
2023-03-30T09:56:57.027Z,1.92
2023-03-30T09:59:46.110Z,2.00
2023-03-30T10:02:33.957Z,2.35
2023-03-30T10:05:21.855Z,1.83
2023-03-30T10:08:24.915Z,1.80
2023-03-30T10:11:13.107Z,2.30
2023-03-30T10:14:00.749Z,2.00
2023-03-30T10:16:49.619Z,2.03
2023-03-30T10:19:38.606Z,2.35
2023-03-30T10:22:27.091Z,2.28
2023-03-30T10:25:21.214Z,2.10
2023-03-30T10:28:21.405Z,2.60
2023-03-30T10:31:15.833Z,2.30
2023-03-30T10:34:06.654Z,2.25
2023-03-30T10:36:55.073Z,2.08
2023-03-30T10:39:44.551Z,2.47
2023-03-30T10:42:33.917Z,2.35
2023-03-30T10:45:23.830Z,2.35
2023-03-30T10:48:37.593Z,2.50
2023-03-30T10:51:37.024Z,2.35
2023-03-30T10:54:31.868Z,2.25
2023-03-30T10:57:22.345Z,2.42
2023-03-30T11:00:32.600Z,2.15
2023-03-30T11:03:25.004Z,2.35
2023-03-30T11:06:17.576Z,5.47
2023-03-30T11:09:10.770Z,2.47
2023-03-30T11:12:02.607Z,2.40
2023-03-30T11:14:54.185Z,2.13
2023-03-30T11:17:49.195Z,2.00
2023-03-30T11:20:42.070Z,1.85
2023-03-30T11:23:40.748Z,2.10
2023-03-30T11:26:36.746Z,2.50
2023-03-30T11:29:32.371Z,2.25
2023-03-30T11:32:31.552Z,2.40
2023-03-30T11:35:27.073Z,2.42
2023-03-30T11:38:19.200Z,2.05
2023-03-30T11:41:12.550Z,2.35
2023-03-30T11:44:01.779Z,2.03
2023-03-30T11:47:00.354Z,2.20
2023-03-30T11:50:02.830Z,2.17
2023-03-30T11:53:01.172Z,2.25
2023-03-30T11:55:57.737Z,2.58
2023-03-30T11:58:49.122Z,1.95
2023-03-30T12:02:02.812Z,2.33
2023-03-30T12:04:57.012Z,1.98
2023-03-30T12:07:54.820Z,2.00
2023-03-30T12:10:43.830Z,2.17
2023-03-30T12:13:41.266Z,2.00
2023-03-30T12:16:38.884Z,1.90
2023-03-30T12:19:39.730Z,2.42
2023-03-30T12:22:37.833Z,2.15
2023-03-30T12:25:31.506Z,2.08
2023-03-30T12:28:27.859Z,2.10
2023-03-30T12:31:19.821Z,2.33
2023-03-30T12:34:08.649Z,2.30
2023-03-30T12:37:02.424Z,1.95
2023-03-30T12:39:55.913Z,2.03
2023-03-30T12:42:54.230Z,2.20
2023-03-30T12:45:51.875Z,1.80
2023-03-30T12:48:50.395Z,2.40
2023-03-30T12:51:54.257Z,2.30
2023-03-30T12:55:06.032Z,2.55
2023-03-30T12:58:18.371Z,2.15
2023-03-30T13:01:35.540Z,2.22
2023-03-30T13:04:26.079Z,2.03
2023-03-30T13:07:17.677Z,2.30
2023-03-30T13:10:40.606Z,2.30
2023-03-30T13:13:50.858Z,2.53
2023-03-30T13:17:12.610Z,2.20
2023-03-30T13:20:29.272Z,2.90
2023-03-30T13:23:28.405Z,2.38
2023-03-30T13:29:18.623Z,2.63
2023-03-30T13:32:21.261Z,2.50
2023-03-30T13:35:42.490Z,2.42
2023-03-30T13:38:53.959Z,2.47
2023-03-30T13:41:55.162Z,2.20
2023-03-30T13:44:59.248Z,2.00
2023-03-30T13:47:58.605Z,2.47
2023-03-30T13:50:51.855Z,2.40
2023-03-30T13:53:41.906Z,2.47
2023-03-30T13:56:32.558Z,2.35
2023-03-30T13:59:25.012Z,2.67
2023-03-30T14:02:17.222Z,1.40
2023-03-30T14:05:20.534Z,1.30
2023-03-30T14:08:11.295Z,1.20
2023-03-30T14:10:59.253Z,1.70
2023-03-30T14:13:49.101Z,1.70
2023-03-30T14:16:39.798Z,1.45
2023-03-30T14:19:29.141Z,1.80
2023-03-30T14:22:21.118Z,1.73
2023-03-30T14:25:24.412Z,1.50
2023-03-30T14:28:15.580Z,1.77
2023-03-30T14:31:05.653Z,1.70
2023-03-30T14:33:54.760Z,2.00
2023-03-30T14:36:46.312Z,2.60
2023-03-30T14:39:37.848Z,2.60
2023-03-30T14:42:28.201Z,2.15
2023-03-30T14:45:18.701Z,4.20
2023-03-30T14:48:06.157Z,4.43
2023-03-30T14:50:54.862Z,2.20
2023-03-30T14:53:42.352Z,1.90
2023-03-30T14:56:29.975Z,1.95
2023-03-30T14:59:19.792Z,1.77
2023-03-30T15:02:12.708Z,1.98
2023-03-30T15:05:01.419Z,2.35
2023-03-30T15:07:52.093Z,2.35
2023-03-30T15:10:46.870Z,2.40
2023-03-30T15:13:37.893Z,2.30
2023-03-30T15:16:29.312Z,2.33
2023-03-30T15:19:30.902Z,2.00
2023-03-30T15:22:27.832Z,2.55
2023-03-30T15:25:18.487Z,2.42
2023-03-30T15:28:08.374Z,2.38
2023-03-30T15:30:55.938Z,2.00
2023-03-30T15:33:45.546Z,1.90
2023-03-30T15:36:38.707Z,2.20
2023-03-30T15:39:33.873Z,2.25
2023-03-30T15:42:29.702Z,1.98
2023-03-30T15:45:17.290Z,2.10
2023-03-30T15:48:04.918Z,1.85
2023-03-30T15:50:56.308Z,2.22
2023-03-30T15:53:48.964Z,2.13
2023-03-30T15:56:39.680Z,1.85
2023-03-30T15:59:32.364Z,1.88
2023-03-30T16:02:22.070Z,2.00
2023-03-30T16:05:19.268Z,2.17
2023-03-30T16:08:06.608Z,1.90
2023-03-30T16:10:54.256Z,2.15
2023-03-30T16:13:43.056Z,1.85
2023-03-30T16:16:31.970Z,1.98
2023-03-30T16:19:20.623Z,2.63
2023-03-30T16:22:08.161Z,1.92
2023-03-30T16:24:55.738Z,2.00
2023-03-30T16:27:44.024Z,1.98
2023-03-30T16:30:35.073Z,2.35
2023-03-30T16:33:24.341Z,2.25
2023-03-30T16:36:15.031Z,2.35
2023-03-30T16:39:02.150Z,2.55
2023-03-30T16:41:50.574Z,2.03
2023-03-30T16:44:38.047Z,2.45
2023-03-30T16:47:25.633Z,2.00
2023-03-30T16:50:21.838Z,1.90
2023-03-30T16:53:10.040Z,4.65
2023-03-30T16:55:57.531Z,2.60
2023-03-30T16:58:45.225Z,2.65
2023-03-30T17:01:32.804Z,3.28
2023-03-30T17:04:20.309Z,3.30
2023-03-30T17:07:10.560Z,3.50
2023-03-30T17:09:57.830Z,3.40
2023-03-30T17:12:45.745Z,2.80
2023-03-30T17:15:35.091Z,3.05
2023-03-30T17:18:24.715Z,4.13
2023-03-30T17:21:16.356Z,3.03
2023-03-30T17:24:05.658Z,2.85
2023-03-30T17:26:53.177Z,2.72
2023-03-30T17:29:40.842Z,3.25
2023-03-30T17:32:28.270Z,3.25
2023-03-30T17:35:16.082Z,3.22
2023-03-30T17:38:03.735Z,3.50
2023-03-30T17:40:52.334Z,4.00
2023-03-30T17:43:39.778Z,3.65
2023-03-30T17:46:27.133Z,4.38
2023-03-30T17:49:17.505Z,3.67
2023-03-30T17:52:04.988Z,3.22
2023-03-30T17:54:52.561Z,3.53
2023-03-30T17:57:41.962Z,3.08
2023-03-30T18:00:32.248Z,4.35
2023-03-30T18:03:21.885Z,3.65
2023-03-30T18:06:12.672Z,3.45
2023-03-30T18:08:59.914Z,3.63
2023-03-30T18:11:47.420Z,3.67
2023-03-30T18:14:36.195Z,3.05
2023-03-30T18:17:23.317Z,3.90
2023-03-30T18:20:20.126Z,3.50
2023-03-30T18:23:07.747Z,3.70
2023-03-30T18:25:55.295Z,3.03
2023-03-30T18:28:43.825Z,2.83
2023-03-30T18:31:33.044Z,3.25
2023-03-30T18:34:20.175Z,3.55
2023-03-30T18:37:07.401Z,3.03
2023-03-30T18:39:54.879Z,3.40
2023-03-30T18:42:45.445Z,3.55
2023-03-30T18:45:34.490Z,3.45
2023-03-30T18:48:23.501Z,3.22
2023-03-30T18:51:12.586Z,3.47
2023-03-30T18:54:00.158Z,3.85
2023-03-30T18:56:47.797Z,3.78
2023-03-30T18:59:37.964Z,3.67
2023-03-30T19:02:26.740Z,3.70
2023-03-30T19:05:16.441Z,3.92
2023-03-30T19:08:04.009Z,3.03
2023-03-30T19:10:54.839Z,3.33
2023-03-30T19:13:42.183Z,3.60
2023-03-30T19:16:29.872Z,3.23
2023-03-30T19:19:16.967Z,3.15
2023-03-30T19:22:05.829Z,3.28
2023-03-30T19:24:52.991Z,3.33
2023-03-30T19:27:52.008Z,3.40
2023-03-30T19:30:49.298Z,4.07
2023-03-30T19:33:36.984Z,3.13
2023-03-30T19:36:25.281Z,2.00
2023-03-30T19:39:14.135Z,2.30
2023-03-30T19:42:01.299Z,1.90
2023-03-30T19:44:48.820Z,2.63
2023-03-30T19:47:36.701Z,1.53
2023-03-30T19:50:24.984Z,2.70
2023-03-30T19:53:12.422Z,1.53
2023-03-30T19:56:01.292Z,1.20
2023-03-30T19:58:48.355Z,1.27
2023-03-30T20:01:36.050Z,1.70
2023-03-30T20:04:23.259Z,1.40
2023-03-30T20:07:11.854Z,3.67
2023-03-30T20:09:59.238Z,2.00
2023-03-30T20:12:48.824Z,0.90
2023-03-30T20:15:36.494Z,1.13
2023-03-30T20:18:24.188Z,1.40
2023-03-30T20:21:11.190Z,4.78
2023-03-30T20:23:59.879Z,2.85
2023-03-30T20:26:47.256Z,1.53
2023-03-30T20:29:36.178Z,1.20
2023-03-30T20:32:23.561Z,1.30
2023-03-30T20:35:11.257Z,1.33
2023-03-30T20:37:58.925Z,1.00
2023-03-30T20:40:55.398Z,0.98
2023-03-30T20:43:56.533Z,1.10
2023-03-30T20:46:47.365Z,1.60
2023-03-30T20:49:34.481Z,1.23
2023-03-30T20:52:22.294Z,1.33
2023-03-30T20:55:10.447Z,1.27
2023-03-30T20:57:58.069Z,1.80
2023-03-30T21:00:47.305Z,1.50
2023-03-30T21:03:41.187Z,1.60
2023-03-30T21:06:31.384Z,1.67
2023-03-30T21:09:18.892Z,1.50
2023-03-30T21:12:06.941Z,1.73
2023-03-30T21:14:54.184Z,1.80
2023-03-30T21:17:41.618Z,1.97
2023-03-30T21:20:30.940Z,1.77
2023-03-30T21:23:18.237Z,1.70
2023-03-30T21:26:07.200Z,1.60
2023-03-30T21:28:54.507Z,2.30
2023-03-30T21:31:41.921Z,1.87
2023-03-30T21:34:29.358Z,1.97
2023-03-30T21:37:18.161Z,1.70
2023-03-30T21:40:07.032Z,1.90
2023-03-30T21:42:54.193Z,1.73
2023-03-30T21:45:41.653Z,2.03
2023-03-30T21:48:31.827Z,2.07
2023-03-30T21:51:21.214Z,1.80
2023-03-30T21:54:10.828Z,1.60
2023-03-30T21:56:57.958Z,2.03
2023-03-30T21:59:45.363Z,2.20
2023-03-30T22:02:32.943Z,2.40
2023-03-30T22:05:20.477Z,2.33
2023-03-30T22:08:07.880Z,2.40
2023-03-30T22:10:59.737Z,2.17
2023-03-30T22:13:48.435Z,2.33
2023-03-30T22:16:36.806Z,2.67
2023-03-30T22:19:25.480Z,2.77
2023-03-30T22:22:12.762Z,2.70
2023-03-30T22:25:00.127Z,2.77
2023-03-30T22:27:49.037Z,2.60
2023-03-30T22:30:36.185Z,2.78
2023-03-30T22:33:23.535Z,2.63
2023-03-30T22:36:17.141Z,2.70
2023-03-30T22:39:04.893Z,2.37
2023-03-30T22:41:52.446Z,2.60
2023-03-30T22:44:41.187Z,2.60
2023-03-30T22:47:28.454Z,2.87
2023-03-30T22:50:17.441Z,2.47
2023-03-30T22:53:04.872Z,2.40
2023-03-30T22:55:52.062Z,2.17
2023-03-30T22:58:39.636Z,1.90
2023-03-30T23:01:32.111Z,2.07
2023-03-30T23:04:20.369Z,1.90
2023-03-30T23:07:08.467Z,2.30
2023-03-30T23:09:58.254Z,2.27
2023-03-30T23:12:46.387Z,1.77
2023-03-30T23:15:33.625Z,1.97
2023-03-30T23:18:22.392Z,1.90
2023-03-30T23:21:11.098Z,2.13
2023-03-30T23:23:59.777Z,1.97
2023-03-30T23:26:46.945Z,1.50
2023-03-30T23:29:34.440Z,1.80
2023-03-30T23:32:21.915Z,2.03
2023-03-30T23:35:11.050Z,1.90
2023-03-30T23:37:58.237Z,2.20
2023-03-30T23:40:46.374Z,1.97
2023-03-30T23:43:33.913Z,1.67
2023-03-30T23:46:21.217Z,1.80
2023-03-30T23:49:08.604Z,1.90
2023-03-30T23:51:57.703Z,1.70
2023-03-30T23:54:45.220Z,1.70
2023-03-30T23:57:32.588Z,1.70
